Time;durP1;ratioP1;P1;durP2;ratioP2;P2;SDS_P1;SDS_P2;PMS_P1;PMS_P2;Temp;Humidity;BMP_temperature;BMP_pressure;BME280_temperature;BME280_humidity;BME280_pressure;Samples;Min_cycle;Max_cycle;Signal;HPM_P1;HPM_P2
2023/01/10 00:00:38;;;;;;;95.55;40.33;;;;;;;5.22;96.99;96566.56;4965284;28;20580;-66
2023/01/10 00:03:07;;;;;;;95.88;38.47;;;;;;;5.36;96.69;96592.50;4965163;28;20059;-66
2023/01/10 00:05:35;;;;;;;96.20;37.35;;;;;;;5.34;96.82;96589.28;4964217;28;20047;-56
2023/01/10 00:08:03;;;;;;;92.35;39.97;;;;;;;5.31;96.99;96583.72;4965351;28;20057;-57
2023/01/10 00:10:31;;;;;;;93.65;39.63;;;;;;;5.15;98.43;96582.84;4965550;28;20094;-66
2023/01/10 00:15:44;;;;;;;103.00;42.20;;;;;;;5.03;99.92;96577.34;4965038;28;20085;-57
2023/01/10 00:18:10;;;;;;;101.72;44.45;;;;;;;4.76;99.93;96525.97;4965550;28;20051;-67
2023/01/10 00:20:37;;;;;;;98.85;42.65;;;;;;;5.21;98.35;96576.78;4965773;28;20059;-56
2023/01/10 00:23:04;;;;;;;108.47;41.55;;;;;;;5.07;98.42;96568.13;4965070;28;20059;-57
2023/01/10 00:25:33;;;;;;;108.55;45.88;;;;;;;5.09;99.55;96581.50;4965433;28;20109;-67
2023/01/10 00:30:34;;;;;;;105.70;41.73;;;;;;;4.76;99.01;96501.28;4965494;28;20050;-65
2023/01/10 00:33:00;;;;;;;105.57;43.67;;;;;;;4.99;99.06;96543.53;4964827;28;20317;-67
2023/01/10 00:35:27;;;;;;;99.10;44.50;;;;;;;5.13;99.80;96563.16;4965302;28;20134;-55
2023/01/10 00:38:00;;;;;;;99.60;41.92;;;;;;;5.18;99.25;96565.69;4965152;28;20050;-66
2023/01/10 00:40:26;;;;;;;97.32;41.95;;;;;;;5.13;100.00;96557.69;4965565;28;20106;-66
2023/01/10 00:45:38;;;;;;;97.00;41.55;;;;;;;5.33;100.00;96562.19;4965450;28;20051;-55
2023/01/10 00:48:05;;;;;;;114.25;43.33;;;;;;;5.40;100.00;96559.66;4965252;28;20051;-54
2023/01/10 00:50:31;;;;;;;104.13;42.90;;;;;;;5.37;99.80;96561.16;4964939;28;20078;-55
2023/01/10 00:52:58;;;;;;;98.50;41.30;;;;;;;5.37;99.97;96557.59;4961813;28;20058;-57
2023/01/10 00:55:24;;;;;;;105.15;42.15;;;;;;;5.44;99.07;96568.78;4946112;28;20094;-66
2023/01/10 00:57:51;;;;;;;98.35;43.83;;;;;;;5.45;98.70;96560.22;4945813;29;20055;-66
2023/01/10 01:00:18;;;;;;;97.78;40.58;;;;;;;5.48;98.84;96570.50;4945796;29;20533;-66
2023/01/10 01:02:44;;;;;;;101.10;43.70;;;;;;;5.48;98.66;96564.22;4960032;28;20163;-65
2023/01/10 01:05:11;;;;;;;104.07;45.55;;;;;;;5.28;98.66;96521.28;4964733;28;20046;-64
2023/01/10 01:07:38;;;;;;;108.90;45.53;;;;;;;5.58;97.99;96559.00;4940904;28;20055;-55
2023/01/10 01:12:50;;;;;;;112.57;45.72;;;;;;;5.58;97.55;96547.25;4968424;28;20129;-58
2023/01/10 01:15:16;;;;;;;102.13;42.90;;;;;;;5.60;97.33;96545.72;4967893;28;20113;-55
2023/01/10 01:17:43;;;;;;;108.40;45.58;;;;;;;5.67;97.00;96553.38;4968734;28;20062;-65
2023/01/10 01:20:10;;;;;;;99.93;42.20;;;;;;;5.67;97.18;96556.91;4966802;28;20117;-55
2023/01/10 01:22:37;;;;;;;107.85;43.95;;;;;;;5.72;96.60;96553.13;4968466;28;20474;-55
2023/01/10 01:25:04;;;;;;;109.97;43.03;;;;;;;5.64;96.74;96545.84;4968413;28;20054;-65
2023/01/10 01:27:31;;;;;;;104.15;42.83;;;;;;;5.33;97.42;96490.78;4968215;28;20069;-57
2023/01/10 01:29:58;;;;;;;113.80;44.60;;;;;;;4.73;97.71;96395.00;4968894;28;20051;-58
2023/01/10 01:32:24;;;;;;;111.03;43.60;;;;;;;5.59;97.59;96532.34;4966744;28;20047;-55
2023/01/10 01:34:51;;;;;;;104.18;42.45;;;;;;;5.66;97.16;96527.03;4968908;28;20051;-66
2023/01/10 01:37:18;;;;;;;106.45;42.75;;;;;;;5.23;97.17;96480.34;4968232;28;20517;-65
2023/01/10 01:39:48;;;;;;;110.63;46.05;;;;;;;5.54;98.28;96529.84;4968773;28;20498;-66
2023/01/10 01:42:25;;;;;;;109.35;44.60;;;;;;;5.04;97.83;96469.19;4967640;28;20106;-66
2023/01/10 01:45:07;;;;;;;94.85;40.80;;;;;;;5.23;98.48;96519.53;4968415;28;20469;-56
2023/01/10 01:47:45;;;;;;;90.70;38.33;;;;;;;4.79;100.00;96478.66;4968057;28;20138;-63
2023/01/10 01:50:21;;;;;;;100.40;40.25;;;;;;;5.00;100.00;96495.72;4967983;28;20553;-55
2023/01/10 01:52:51;;;;;;;97.18;41.35;;;;;;;4.63;100.00;96432.72;4968178;28;20065;-66
2023/01/10 01:55:18;;;;;;;107.13;45.92;;;;;;;5.07;100.00;96509.66;4967788;28;20427;-65
2023/01/10 01:57:47;;;;;;;146.85;61.92;;;;;;;5.03;100.00;96500.50;4967805;28;20082;-54
2023/01/10 02:00:14;;;;;;;110.68;42.70;;;;;;;5.00;100.00;96504.75;4967793;28;20477;-65
2023/01/10 02:02:51;;;;;;;102.78;42.85;;;;;;;5.04;100.00;96489.22;4982392;28;20078;-65
2023/01/10 02:05:30;;;;;;;98.53;40.30;;;;;;;4.54;100.00;96409.34;4967460;28;20046;-55
2023/01/10 02:08:01;;;;;;;102.55;42.83;;;;;;;4.51;100.00;96396.31;4966123;28;20521;-66
2023/01/10 02:10:36;;;;;;;95.88;41.67;;;;;;;5.11;100.00;96483.09;4966085;28;20557;-54
2023/01/10 02:13:06;;;;;;;96.40;40.80;;;;;;;5.09;100.00;96482.69;4967050;28;20094;-65
2023/01/10 02:15:33;;;;;;;94.65;40.47;;;;;;;5.12;100.00;96484.72;4967408;28;20295;-56
2023/01/10 02:18:02;;;;;;;104.22;40.50;;;;;;;4.61;100.00;96404.88;4965908;28;20055;-65
2023/01/10 02:20:39;;;;;;;98.45;38.92;;;;;;;4.77;100.00;96395.91;4964965;28;20051;-56
2023/01/10 02:23:46;;;;;;;95.00;37.88;;;;;;;5.26;100.00;96468.66;4967342;28;20090;-66
2023/01/10 02:26:33;;;;;;;89.15;35.90;;;;;;;5.27;100.00;96471.03;4972138;28;20655;-55
2023/01/10 02:29:33;;;;;;;94.25;38.15;;;;;;;5.35;100.00;96485.75;4967540;28;20137;-55
2023/01/10 02:32:11;;;;;;;94.95;38.70;;;;;;;5.44;99.41;96480.91;4970382;28;20082;-55
2023/01/10 02:34:47;;;;;;;103.55;43.10;;;;;;;5.30;96.71;96428.34;4947817;28;20491;-58
2023/01/10 02:37:20;;;;;;;98.97;41.42;;;;;;;5.48;97.63;96470.81;4947905;29;20642;-65
2023/01/10 02:39:58;;;;;;;93.97;39.70;;;;;;;5.41;98.28;96459.63;4948160;28;20047;-56
2023/01/10 02:42:55;;;;;;;93.10;38.22;;;;;;;5.51;97.63;96459.94;4947967;28;20069;-55
2023/01/10 02:45:29;;;;;;;89.15;38.13;;;;;;;5.54;97.60;96444.69;4947777;28;20050;-65
2023/01/10 02:47:57;;;;;;;93.13;38.85;;;;;;;5.31;98.33;96428.00;4947490;29;20604;-66
2023/01/10 02:50:35;;;;;;;102.05;41.22;;;;;;;5.49;97.97;96432.03;4945915;28;20114;-66
2023/01/10 02:53:05;;;;;;;92.88;38.72;;;;;;;5.65;97.62;96443.03;4947382;29;20082;-66
2023/01/10 02:56:12;;;;;;;96.75;40.15;;;;;;;5.64;97.30;96435.94;4947549;29;20122;-66
2023/01/10 02:58:52;;;;;;;90.78;40.38;;;;;;;5.60;98.35;96416.63;4936281;28;20058;-66
2023/01/10 03:01:29;;;;;;;88.55;37.30;;;;;;;5.67;97.13;96413.25;4965408;28;20074;-66
2023/01/10 03:04:25;;;;;;;92.55;38.05;;;;;;;5.47;97.71;96409.59;4966606;28;20073;-56
2023/01/10 03:07:17;;;;;;;82.80;34.78;;;;;;;5.43;97.98;96392.25;4981766;28;20063;-57
2023/01/10 03:09:59;;;;;;;77.15;31.30;;;;;;;5.51;98.09;96406.94;4953921;28;20065;-57
2023/01/10 03:12:38;;;;;;;81.13;33.47;;;;;;;5.53;97.24;96412.91;4962146;28;20372;-58
2023/01/10 03:15:06;;;;;;;79.65;32.53;;;;;;;5.59;97.56;96428.75;4946326;28;20528;-66
2023/01/10 03:17:35;;;;;;;82.60;31.60;;;;;;;4.48;97.34;96262.66;4950759;28;20481;-66
2023/01/10 03:20:05;;;;;;;88.88;35.75;;;;;;;5.59;97.38;96408.72;4966371;28;20066;-56
2023/01/10 03:22:37;;;;;;;91.75;37.67;;;;;;;5.63;97.83;96395.88;4964554;28;20058;-66
2023/01/10 03:25:07;;;;;;;72.72;31.33;;;;;;;5.64;97.11;96413.97;4966487;28;20521;-66
2023/01/10 03:27:50;;;;;;;73.57;31.95;;;;;;;5.12;97.69;96342.00;4965823;28;20059;-67
2023/01/10 03:30:28;;;;;;;83.57;32.95;;;;;;;5.49;98.24;96412.78;4965707;28;20588;-56
2023/01/10 03:32:56;;;;;;;86.30;33.20;;;;;;;5.47;99.64;96397.84;4965700;28;20082;-66
2023/01/10 03:35:33;;;;;;;80.85;33.72;;;;;;;5.49;99.48;96379.84;4965960;28;20129;-55
2023/01/10 03:38:14;;;;;;;97.05;41.50;;;;;;;5.52;99.97;96386.56;4965529;28;20054;-56
2023/01/10 03:40:53;;;;;;;91.82;41.97;;;;;;;5.54;99.43;96387.00;4965552;28;20521;-66
2023/01/10 03:46:13;;;;;;;82.78;36.97;;;;;;;5.48;99.84;96382.94;4965712;28;20050;-57
2023/01/10 03:48:42;;;;;;;88.10;36.42;;;;;;;5.53;99.25;96388.19;4966226;28;20062;-55
2023/01/10 03:51:11;;;;;;;99.55;37.28;;;;;;;5.57;98.85;96381.63;4965645;28;20073;-55
2023/01/10 03:53:38;;;;;;;93.68;38.38;;;;;;;5.10;99.23;96297.63;4966045;28;20133;-56
2023/01/10 03:56:06;;;;;;;95.90;39.38;;;;;;;5.46;99.62;96368.75;4965801;28;20184;-55
2023/01/10 03:58:33;;;;;;;96.25;36.85;;;;;;;5.49;99.49;96390.03;4965525;28;20065;-65
2023/01/10 04:00:59;;;;;;;95.85;36.70;;;;;;;4.54;99.72;96244.81;4965712;28;20105;-65
2023/01/10 04:03:26;;;;;;;94.10;39.17;;;;;;;5.41;100.00;96371.75;4966169;28;20078;-66
2023/01/10 04:05:53;;;;;;;104.32;41.40;;;;;;;3.81;100.00;96101.09;4964859;28;20097;-64
2023/01/10 04:08:19;;;;;;;100.78;39.10;;;;;;;5.51;100.00;96361.06;4965672;28;20517;-55
2023/01/10 04:10:48;;;;;;;103.95;39.40;;;;;;;5.05;100.00;96292.41;4965173;28;20635;-65
2023/01/10 04:13:15;;;;;;;108.65;40.38;;;;;;;5.13;100.00;96299.66;4965104;28;20062;-66
2023/01/10 04:15:41;;;;;;;104.20;39.60;;;;;;;5.52;100.00;96367.34;4964646;28;20382;-55
2023/01/10 04:18:08;;;;;;;106.10;41.28;;;;;;;5.51;100.00;96365.75;4965763;28;20399;-55
2023/01/10 04:20:35;;;;;;;102.25;39.22;;;;;;;5.44;100.00;96360.06;4965652;28;20089;-56
2023/01/10 04:23:01;;;;;;;114.45;39.63;;;;;;;5.36;100.00;96352.81;4965384;28;20190;-56
2023/01/10 04:25:28;;;;;;;114.07;38.30;;;;;;;5.24;100.00;96355.63;4964740;28;20086;-66
2023/01/10 04:27:54;;;;;;;107.35;40.47;;;;;;;5.21;100.00;96321.47;4980182;28;20051;-65
2023/01/10 04:30:21;;;;;;;106.35;40.05;;;;;;;5.38;100.00;96353.25;4965160;28;20059;-57
2023/01/10 04:32:48;;;;;;;97.80;39.83;;;;;;;5.29;100.00;96341.66;4965481;28;20519;-55
2023/01/10 04:35:14;;;;;;;98.45;40.00;;;;;;;5.46;100.00;96352.28;4956733;28;20054;-57
2023/01/10 04:37:42;;;;;;;107.88;40.45;;;;;;;5.28;100.00;96318.09;4963285;28;20489;-65
2023/01/10 04:40:09;;;;;;;111.75;43.45;;;;;;;4.91;100.00;96286.53;4946349;28;20051;-55
2023/01/10 04:42:36;;;;;;;115.05;41.53;;;;;;;4.97;100.00;96274.97;4947330;28;20046;-57
2023/01/10 04:45:03;;;;;;;99.10;39.58;;;;;;;5.25;100.00;96277.63;4967698;28;20061;-55
2023/01/10 04:47:29;;;;;;;109.75;41.08;;;;;;;5.26;100.00;96287.44;4967359;28;20342;-55
2023/01/10 04:49:56;;;;;;;113.70;42.42;;;;;;;4.92;100.00;96239.53;4968790;28;20520;-66
2023/01/10 04:52:24;;;;;;;103.93;41.20;;;;;;;5.54;100.00;96326.59;4968550;28;20055;-55
2023/01/10 04:54:51;;;;;;;106.15;39.65;;;;;;;5.67;100.00;96330.84;4968965;28;20065;-65
2023/01/10 04:57:18;;;;;;;103.15;39.92;;;;;;;5.73;100.00;96315.66;4968673;28;20488;-65
2023/01/10 04:59:44;;;;;;;101.40;39.75;;;;;;;5.78;100.00;96326.38;4962437;28;20093;-65
2023/01/10 05:02:11;;;;;;;104.38;40.13;;;;;;;5.83;100.00;96317.91;4949860;28;20477;-56
2023/01/10 05:04:38;;;;;;;110.30;42.97;;;;;;;5.87;100.00;96314.09;4949941;29;20668;-55
2023/01/10 05:07:04;;;;;;;109.45;42.65;;;;;;;5.86;98.93;96315.22;4949570;28;20421;-55
2023/01/10 05:09:31;;;;;;;121.93;50.30;;;;;;;5.92;98.61;96307.50;4949263;28;20114;-55
2023/01/10 05:11:57;;;;;;;115.25;49.83;;;;;;;5.93;98.10;96303.59;4948958;28;20510;-67
2023/01/10 05:14:24;;;;;;;112.28;47.65;;;;;;;5.51;97.81;96233.91;4941810;28;20059;-55
2023/01/10 05:16:51;;;;;;;110.28;46.15;;;;;;;5.89;97.99;96294.50;4948860;28;20055;-65
2023/01/10 05:19:17;;;;;;;111.10;46.28;;;;;;;5.83;97.44;96367.38;4949459;28;20062;-65
2023/01/10 05:21:44;;;;;;;116.65;47.13;;;;;;;5.84;98.11;96308.50;4948812;28;20055;-55
2023/01/10 05:24:11;;;;;;;121.72;49.58;;;;;;;5.95;97.65;96315.03;4949482;28;20066;-64
2023/01/10 05:26:37;;;;;;;128.18;49.30;;;;;;;5.89;98.32;96324.72;4948965;28;20559;-65
2023/01/10 05:29:04;;;;;;;115.95;46.80;;;;;;;5.81;98.29;96304.50;4949198;28;20054;-67
2023/01/10 05:31:30;;;;;;;106.40;45.33;;;;;;;5.17;99.83;96256.66;4948762;28;20055;-55
2023/01/10 05:33:57;;;;;;;112.70;46.70;;;;;;;5.75;100.00;96316.13;4949341;28;20130;-58
2023/01/10 05:36:24;;;;;;;109.50;45.47;;;;;;;5.44;100.00;96311.44;4948998;28;20063;-66
2023/01/10 05:38:50;;;;;;;114.45;42.80;;;;;;;5.79;100.00;96311.50;4956991;28;20047;-66
2023/01/10 05:41:17;;;;;;;110.07;42.67;;;;;;;5.79;100.00;96314.22;4968077;28;20101;-56
2023/01/10 05:43:44;;;;;;;114.80;45.08;;;;;;;5.58;100.00;96267.06;4968780;28;20055;-66
2023/01/10 05:46:10;;;;;;;160.77;105.15;;;;;;;5.62;100.00;96256.94;4967131;28;20055;-65
2023/01/10 05:48:37;;;;;;;121.30;52.22;;;;;;;5.91;100.00;96308.69;4968240;28;20089;-55
2023/01/10 05:51:04;;;;;;;146.70;59.95;;;;;;;5.97;99.86;96305.25;4967570;28;20054;-65
2023/01/10 05:53:31;;;;;;;130.68;55.63;;;;;;;5.92;99.02;96299.25;4965006;28;20173;-66
2023/01/10 05:56:00;;;;;;;115.35;48.45;;;;;;;5.37;98.34;96184.16;4948094;28;20066;-55
2023/01/10 05:58:28;;;;;;;127.88;50.90;;;;;;;6.10;98.73;96289.47;4948200;28;20082;-67
2023/01/10 06:00:56;;;;;;;106.95;48.60;;;;;;;6.17;98.00;96289.59;4964191;28;20509;-67
2023/01/10 06:03:25;;;;;;;115.80;54.60;;;;;;;6.06;98.77;96294.09;4967830;28;20055;-56
2023/01/10 06:05:55;;;;;;;101.10;40.78;;;;;;;5.96;98.47;96300.13;4966616;28;20137;-57
2023/01/10 06:08:23;;;;;;;102.22;43.20;;;;;;;6.06;98.47;96296.84;4966320;28;20092;-55
2023/01/10 06:10:49;;;;;;;109.85;48.25;;;;;;;5.99;98.08;96283.72;4967283;28;20117;-68
2023/01/10 06:13:16;;;;;;;111.22;45.78;;;;;;;6.15;98.50;96294.66;4981608;28;20055;-67
2023/01/10 06:15:43;;;;;;;91.50;37.92;;;;;;;5.98;97.99;96248.34;4967571;28;20055;-55
2023/01/10 06:18:09;;;;;;;87.68;36.38;;;;;;;6.24;97.25;96287.03;4967012;28;20047;-68
2023/01/10 06:20:39;;;;;;;99.72;39.30;;;;;;;5.75;97.87;96272.16;4967204;28;20205;-68
2023/01/10 06:23:05;;;;;;;93.95;39.22;;;;;;;6.00;98.82;96273.53;4966086;28;20833;-55
2023/01/10 06:25:35;;;;;;;97.72;35.90;;;;;;;5.24;100.00;96251.31;4967366;28;20047;-56
2023/01/10 06:28:02;;;;;;;93.93;35.78;;;;;;;4.83;100.00;96290.25;4967119;28;20433;-56
2023/01/10 06:30:29;;;;;;;98.30;37.08;;;;;;;4.54;100.00;96240.13;4954209;28;20065;-57
2023/01/10 06:33:03;;;;;;;96.28;33.78;;;;;;;4.71;100.00;96309.53;4974651;28;20525;-67
2023/01/10 06:35:30;;;;;;;96.05;35.33;;;;;;;4.62;100.00;96307.72;4967175;28;20054;-68
2023/01/10 06:37:57;;;;;;;116.15;41.22;;;;;;;4.76;100.00;96312.03;4967017;28;20055;-68
2023/01/10 06:40:25;;;;;;;111.38;40.88;;;;;;;4.70;100.00;96319.69;4966955;28;20055;-55
2023/01/10 06:42:52;;;;;;;112.40;40.00;;;;;;;4.71;100.00;96304.81;4960319;28;20074;-69
2023/01/10 06:45:19;;;;;;;109.57;38.25;;;;;;;4.60;100.00;96321.00;4947952;28;20055;-71
2023/01/10 06:47:46;;;;;;;109.40;41.30;;;;;;;4.68;100.00;96315.72;4958828;28;20542;-56
2023/01/10 06:50:13;;;;;;;111.93;41.58;;;;;;;4.79;100.00;96317.56;4966696;28;20090;-56
2023/01/10 06:52:40;;;;;;;107.95;39.10;;;;;;;4.88;100.00;96318.22;4964615;28;20046;-73
2023/01/10 06:55:08;;;;;;;121.82;42.42;;;;;;;4.71;100.00;96282.09;4966370;28;20073;-57
2023/01/10 06:57:34;;;;;;;113.15;43.30;;;;;;;4.85;100.00;96326.38;4966669;28;20058;-72
2023/01/10 07:00:04;;;;;;;122.32;44.63;;;;;;;4.58;100.00;96312.31;4966469;28;20109;-75
2023/01/10 07:02:30;;;;;;;117.15;43.05;;;;;;;3.90;100.00;96219.53;4965474;28;20066;-58
2023/01/10 07:04:57;;;;;;;278.35;63.85;;;;;;;4.24;100.00;96252.59;4966299;28;20051;-55
2023/01/10 07:07:23;;;;;;;146.27;68.22;;;;;;;4.76;100.00;96303.78;4964349;28;20415;-57
2023/01/10 07:09:50;;;;;;;130.07;45.83;;;;;;;4.36;100.00;96266.25;4967672;28;20073;-56
2023/01/10 07:12:17;;;;;;;129.82;52.33;;;;;;;3.93;100.00;96181.28;4965364;28;20074;-59
2023/01/10 07:14:43;;;;;;;158.68;78.13;;;;;;;4.96;100.00;96300.00;4980864;28;20098;-58
2023/01/10 07:17:10;;;;;;;247.88;95.38;;;;;;;4.89;100.00;96266.88;4980848;28;20088;-61
2023/01/10 07:19:37;;;;;;;115.28;42.72;;;;;;;4.76;100.00;96240.69;4966356;28;20588;-57
2023/01/10 07:22:03;;;;;;;123.88;43.05;;;;;;;5.23;100.00;96283.44;4969857;28;20113;-57
2023/01/10 07:24:30;;;;;;;118.00;46.00;;;;;;;5.27;100.00;96278.88;4965520;28;20050;-60
2023/01/10 07:26:56;;;;;;;354.30;68.15;;;;;;;5.38;100.00;96290.09;4965361;28;20059;-56
2023/01/10 07:29:23;;;;;;;1999.90;999.90;;;;;;;5.18;100.00;96225.28;4961031;28;20093;-58
2023/01/10 07:31:50;;;;;;;138.45;53.45;;;;;;;5.16;100.00;96225.66;4946660;28;20090;-62
2023/01/10 07:34:18;;;;;;;145.80;55.72;;;;;;;5.60;100.00;96275.72;4964222;28;20093;-61
2023/01/10 07:36:50;;;;;;;128.20;52.67;;;;;;;5.01;100.00;96182.53;4956134;28;20238;-62
2023/01/10 07:39:19;;;;;;;141.07;54.75;;;;;;;5.70;100.00;96269.69;4967626;28;20134;-57
2023/01/10 07:41:53;;;;;;;135.52;52.38;;;;;;;5.72;100.00;96267.38;4961734;28;20081;-61
2023/01/10 07:44:27;;;;;;;111.43;41.47;;;;;;;5.44;100.00;96222.75;4967451;28;20081;-60
2023/01/10 07:46:59;;;;;;;92.68;37.42;;;;;;;5.51;100.00;96266.88;4968403;28;20058;-61
2023/01/10 07:49:29;;;;;;;113.72;40.55;;;;;;;5.56;100.00;96272.09;4969081;28;20086;-61
2023/01/10 07:51:58;;;;;;;109.53;40.78;;;;;;;5.52;100.00;96273.97;4965613;28;20061;-56
2023/01/10 07:54:37;;;;;;;111.25;41.83;;;;;;;5.58;100.00;96261.56;4967897;28;20050;-57
2023/01/10 07:57:07;;;;;;;145.13;60.72;;;;;;;5.68;100.00;96255.50;4973976;28;20058;-58
2023/01/10 07:59:33;;;;;;;120.63;46.75;;;;;;;5.09;100.00;96216.44;4955314;28;20046;-56
2023/01/10 08:02:00;;;;;;;123.38;48.78;;;;;;;5.73;100.00;96252.47;4966100;28;20493;-55
2023/01/10 08:04:27;;;;;;;134.35;51.80;;;;;;;5.68;100.00;96228.03;4966517;28;20058;-61
2023/01/10 08:06:55;;;;;;;157.63;57.65;;;;;;;3.81;100.00;95920.38;4966222;28;20126;-56
2023/01/10 08:09:22;;;;;;;139.45;59.25;;;;;;;5.90;100.00;96249.34;4970890;28;20054;-68
2023/01/10 08:11:49;;;;;;;146.20;58.63;;;;;;;5.64;100.00;96211.47;4966623;28;20484;-59
2023/01/10 08:14:16;;;;;;;143.15;55.28;;;;;;;5.96;100.00;96247.91;4965129;28;20058;-56
2023/01/10 08:16:43;;;;;;;127.95;50.38;;;;;;;5.58;100.00;96204.66;4971468;28;20575;-55
2023/01/10 08:19:15;;;;;;;125.32;50.92;;;;;;;5.94;100.00;96236.50;4966057;28;20464;-57
2023/01/10 08:21:53;;;;;;;123.35;51.13;;;;;;;5.74;100.00;96205.41;4966616;28;20058;-62
2023/01/10 08:24:31;;;;;;;120.90;44.40;;;;;;;5.70;100.00;96236.72;4963810;28;20083;-58
2023/01/10 08:27:01;;;;;;;117.50;42.67;;;;;;;5.60;100.00;96226.28;4969082;28;20105;-60
2023/01/10 08:29:34;;;;;;;126.55;46.10;;;;;;;5.49;100.00;96181.28;4969172;28;20137;-61
2023/01/10 08:32:02;;;;;;;112.93;42.17;;;;;;;4.91;100.00;96108.22;4977021;28;20604;-59
2023/01/10 08:34:39;;;;;;;133.57;47.25;;;;;;;5.80;100.00;96216.94;4965476;28;20059;-61
2023/01/10 08:37:11;;;;;;;124.20;44.33;;;;;;;5.59;100.00;96175.25;4964969;28;20055;-62
2023/01/10 08:39:38;;;;;;;135.27;51.85;;;;;;;5.76;100.00;96205.06;4966698;28;20082;-57
2023/01/10 08:42:06;;;;;;;124.93;45.78;;;;;;;5.72;100.00;96198.69;4968375;28;20043;-57
2023/01/10 08:44:41;;;;;;;133.95;50.97;;;;;;;5.64;100.00;96177.72;4969547;28;20069;-58
2023/01/10 08:47:10;;;;;;;131.00;50.38;;;;;;;5.85;100.00;96197.41;4968901;28;20058;-55
2023/01/10 08:49:43;;;;;;;160.77;61.72;;;;;;;3.56;100.00;95814.91;4970015;28;20061;-58
2023/01/10 08:52:11;;;;;;;170.88;68.90;;;;;;;5.85;100.00;96162.50;4968820;28;20055;-59
2023/01/10 08:54:39;;;;;;;164.30;68.75;;;;;;;5.98;100.00;96183.19;4968959;28;20085;-57
2023/01/10 08:57:16;;;;;;;144.15;58.40;;;;;;;5.06;100.00;96047.03;4968851;28;20086;-63
2023/01/10 08:59:47;;;;;;;143.63;59.58;;;;;;;5.99;100.00;96190.28;4972430;28;20096;-57
2023/01/10 09:02:18;;;;;;;165.02;62.45;;;;;;;5.49;100.00;96107.16;4968176;28;20053;-58
2023/01/10 09:04:58;;;;;;;143.85;57.70;;;;;;;5.86;100.00;96179.78;4968979;28;20046;-61
2023/01/10 09:07:47;;;;;;;148.93;54.35;;;;;;;5.85;100.00;96170.75;4969706;28;20383;-62
2023/01/10 09:10:23;;;;;;;145.80;60.55;;;;;;;5.29;100.00;96056.13;4958429;28;20141;-63
2023/01/10 09:12:54;;;;;;;142.43;59.80;;;;;;;5.96;100.00;96157.22;4969018;28;20051;-65
2023/01/10 09:15:27;;;;;;;175.63;73.03;;;;;;;5.88;100.00;96150.00;4968655;28;20133;-58
2023/01/10 09:18:03;;;;;;;184.50;76.13;;;;;;;5.93;100.00;96135.97;4967239;28;20407;-60
2023/01/10 09:20:34;;;;;;;143.50;59.47;;;;;;;2.84;100.00;95642.06;4972748;28;20415;-71
2023/01/10 09:23:18;;;;;;;136.50;57.35;;;;;;;3.48;100.00;95752.97;4968327;28;20129;-57
2023/01/10 09:25:51;;;;;;;125.47;55.67;;;;;;;5.89;100.00;96118.63;4965980;28;20054;-65
2023/01/10 09:28:24;;;;;;;135.15;58.45;;;;;;;5.58;100.00;96053.59;4966443;28;20703;-62
2023/01/10 09:30:55;;;;;;;91.72;41.22;;;;;;;6.01;100.00;96085.47;4973609;28;20074;-63
2023/01/10 09:33:27;;;;;;;127.25;51.75;;;;;;;5.94;100.00;96083.38;4970931;28;20050;-57
2023/01/10 09:36:14;;;;;;;119.75;50.75;;;;;;;5.50;100.00;96018.13;4970221;28;20058;-55
2023/01/10 09:38:44;;;;;;;133.13;58.22;;;;;;;5.92;100.00;96073.91;4975176;28;20061;-57
2023/01/10 09:41:32;;;;;;;139.90;57.80;;;;;;;5.34;100.00;95998.19;4976659;28;20049;-60
2023/01/10 09:44:05;;;;;;;143.10;63.92;;;;;;;6.04;100.00;96043.50;4970819;28;20043;-60
2023/01/10 09:47:03;;;;;;;149.05;71.95;;;;;;;6.05;100.00;96078.09;4980030;28;20568;-57
2023/01/10 09:50:28;;;;;;;158.15;69.43;;;;;;;5.91;100.00;96006.38;4966781;28;20525;-65
2023/01/10 09:53:05;;;;;;;165.00;76.63;;;;;;;6.16;100.00;96046.09;4973012;28;20050;-64
2023/01/10 09:55:37;;;;;;;191.90;87.28;;;;;;;5.65;100.00;95959.56;4971925;28;20134;-57
2023/01/10 09:58:19;;;;;;;187.52;81.53;;;;;;;6.09;100.00;96019.28;4970544;28;20073;-61
2023/01/10 10:01:10;;;;;;;145.32;63.75;;;;;;;5.70;100.00;95957.31;4971956;28;20705;-63
2023/01/10 10:03:51;;;;;;;133.85;59.40;;;;;;;6.16;100.00;96007.59;4971492;28;20113;-58
2023/01/10 10:06:24;;;;;;;133.63;56.90;;;;;;;5.76;100.00;95944.84;4971173;28;20051;-60
2023/01/10 10:08:58;;;;;;;141.95;59.22;;;;;;;5.39;100.00;95893.56;4970793;28;20520;-59
2023/01/10 10:11:58;;;;;;;143.40;62.25;;;;;;;6.09;100.00;96004.72;4971424;28;20130;-57
2023/01/10 10:14:43;;;;;;;132.05;64.45;;;;;;;6.17;100.00;95978.94;4967419;28;20150;-59
2023/01/10 10:17:26;;;;;;;144.27;70.63;;;;;;;6.14;100.00;95983.22;4969879;28;20062;-65
2023/01/10 10:20:21;;;;;;;203.13;92.78;;;;;;;5.82;100.00;96003.88;4961308;28;20251;-67
2023/01/10 10:23:31;;;;;;;133.50;62.38;;;;;;;6.14;100.00;95979.69;4971283;28;20058;-63
2023/01/10 10:26:12;;;;;;;139.32;61.55;;;;;;;6.18;100.00;95967.56;4970704;28;20065;-57
2023/01/10 10:28:59;;;;;;;140.65;65.60;;;;;;;6.24;100.00;95976.31;4968893;28;20057;-63
2023/01/10 10:31:49;;;;;;;125.25;59.28;;;;;;;6.31;100.00;95973.66;4959080;28;20047;-61
2023/01/10 10:34:27;;;;;;;135.25;65.68;;;;;;;6.31;100.00;95976.41;4971510;28;20058;-67
2023/01/10 10:37:02;;;;;;;145.13;72.63;;;;;;;6.36;100.00;95973.34;4969853;28;20150;-60
2023/01/10 10:39:50;;;;;;;168.57;78.43;;;;;;;5.89;100.00;95904.28;4959205;28;20056;-58
2023/01/10 10:42:20;;;;;;;243.82;118.57;;;;;;;6.28;100.00;95943.38;4955301;28;20056;-59
2023/01/10 10:45:01;;;;;;;198.55;89.07;;;;;;;6.38;100.00;95938.03;4970745;28;20075;-56
2023/01/10 10:47:36;;;;;;;178.80;84.22;;;;;;;6.38;100.00;95926.25;4956388;28;20125;-67
2023/01/10 10:50:33;;;;;;;160.32;67.13;;;;;;;6.07;100.00;95910.84;4969341;28;20061;-58
2023/01/10 10:53:03;;;;;;;134.95;60.17;;;;;;;6.13;100.00;95914.88;4970418;28;20070;-66
2023/01/10 10:55:39;;;;;;;129.70;57.20;;;;;;;6.17;100.00;95910.22;4969693;28;20515;-69
2023/01/10 10:58:13;;;;;;;113.93;51.75;;;;;;;6.15;100.00;95918.03;4969771;28;20078;-65
2023/01/10 11:00:48;;;;;;;124.20;54.65;;;;;;;5.97;100.00;95900.47;4971159;28;20110;-64
2023/01/10 11:03:35;;;;;;;119.32;52.60;;;;;;;5.99;100.00;95887.94;4970167;28;20142;-64
2023/01/10 11:06:08;;;;;;;129.75;54.00;;;;;;;5.91;100.00;95874.47;4969972;28;20125;-64
2023/01/10 11:08:43;;;;;;;103.53;47.13;;;;;;;6.07;100.00;95877.84;4969308;28;20054;-57
2023/01/10 11:11:34;;;;;;;104.50;47.60;;;;;;;6.18;100.00;95873.31;4970319;28;20521;-57
2023/01/10 11:14:07;;;;;;;122.82;53.65;;;;;;;6.13;100.00;95854.41;4970103;28;20073;-57
2023/01/10 11:16:43;;;;;;;146.50;70.40;;;;;;;6.37;100.00;95867.69;4984739;28;20062;-66
2023/01/10 11:19:22;;;;;;;152.77;72.85;;;;;;;6.05;100.00;95820.50;4966579;28;20078;-65
2023/01/10 11:22:02;;;;;;;165.75;79.00;;;;;;;6.24;100.00;95866.34;4967849;28;20075;-58
2023/01/10 11:24:54;;;;;;;182.27;86.88;;;;;;;6.39;100.00;95868.13;4969281;28;20848;-65
2023/01/10 11:27:45;;;;;;;186.95;88.53;;;;;;;6.53;100.00;95873.03;4969768;28;20358;-65
2023/01/10 11:30:26;;;;;;;201.02;91.05;;;;;;;6.57;100.00;95882.91;4970243;28;20493;-64
2023/01/10 11:33:06;;;;;;;228.65;105.13;;;;;;;6.62;100.00;95893.59;4959873;28;20050;-65
2023/01/10 11:35:40;;;;;;;213.82;99.57;;;;;;;5.92;100.00;95805.41;4969569;28;20146;-59
2023/01/10 11:38:44;;;;;;;157.82;78.82;;;;;;;6.43;100.00;95877.22;4961368;28;20521;-58
2023/01/10 11:41:19;;;;;;;122.15;59.35;;;;;;;6.19;100.00;95825.44;4968349;28;20531;-63
2023/01/10 11:43:47;;;;;;;117.20;59.40;;;;;;;6.60;100.00;95873.91;4969672;28;20050;-57
2023/01/10 11:46:21;;;;;;;111.93;58.33;;;;;;;6.69;100.00;95866.16;4968456;28;20047;-63
2023/01/10 11:49:13;;;;;;;115.60;58.25;;;;;;;6.72;100.00;95870.16;4969110;28;20049;-57
2023/01/10 11:51:47;;;;;;;107.90;58.50;;;;;;;6.77;100.00;95867.84;4968795;28;20054;-63